^^
Saratoga-Weather Station Historical Data
Daily Summary for February 17, 2021 Units:  Both    English   Metric
Daily Weekly Monthly Yearly Custom
  High: Low: Average:
Temperature: 73.2 °F /  22.9 °C 49.5 °F /  9.7 °C 59.7 °F /  15.4 °C
Dew Point: 58.1 °F /  14.5 °C 48.4 °F /  9.1 °C 53.4 °F /  11.9 °C
Humidity: 97% 52% 81%
Wind Speed: 6mph /  9.7km/h - 0.6mph /  0.9km/h
Wind Gust: 8mph /  12.9km/h - -
Wind- - ESE
Pressure: 30.1 in /  1017.6 hPa 29.9 in /  1013.5 hPa -
Precipitation: 0 in /  0.0 mm    
Historical Graphs
 
 
Tabular Data for February 17, 2021
Time Temperature Dew Point Pressure Wind Wind Speed Wind Gust Humidity Rainfall Rate (Hourly) solar
00:00 55.2 °F /  12.9 °C 52.9 °F /  11.6 °C 30.1in /  1017.6hPa Calm     92% 0in /  0.0mm 0 W/m2
00:05 55 °F /  12.8 °C 52.7 °F /  11.5 °C 30.1in /  1017.6hPa Calm     92% 0in /  0.0mm 0 W/m2
00:10 55 °F /  12.8 °C 52.7 °F /  11.5 °C 30.1in /  1017.6hPa Calm     92% 0in /  0.0mm 0 W/m2
00:15 54.9 °F /  12.7 °C 52.5 °F /  11.4 °C 30.1in /  1017.6hPa Calm     92% 0in /  0.0mm 0 W/m2
00:20 54.9 °F /  12.7 °C 52.9 °F /  11.6 °C 30.1in /  1017.6hPa Calm     93% 0in /  0.0mm 0 W/m2
00:25 54.7 °F /  12.6 °C 52.7 °F /  11.5 °C 30.1in /  1017.6hPa Calm     93% 0in /  0.0mm 0 W/m2
00:30 54.7 °F /  12.6 °C 52.7 °F /  11.5 °C 30.1in /  1017.6hPa Calm     93% 0in /  0.0mm 0 W/m2
00:35 54.5 °F /  12.5 °C 52.5 °F /  11.4 °C 30in /  1017.3hPa Calm     93% 0in /  0.0mm 0 W/m2
00:40 54.3 °F /  12.4 °C 52.3 °F /  11.3 °C 30in /  1017.3hPa Calm     93% 0in /  0.0mm 0 W/m2
00:45 54.5 °F /  12.5 °C 52.5 °F /  11.4 °C 30in /  1017.3hPa Calm     93% 0in /  0.0mm 0 W/m2
00:50 54.5 °F /  12.5 °C 52.9 °F /  11.6 °C 30in /  1017.3hPa Calm     94% 0in /  0.0mm 0 W/m2
00:55 54.3 °F /  12.4 °C 52.7 °F /  11.5 °C 30.1in /  1017.6hPa Calm     94% 0in /  0.0mm 0 W/m2
01:00 54.3 °F /  12.4 °C 52.7 °F /  11.5 °C 30.1in /  1017.6hPa Calm     94% 0in /  0.0mm 0 W/m2
01:05 54.3 °F /  12.4 °C 52.7 °F /  11.5 °C 30.1in /  1017.6hPa Calm     94% 0in /  0.0mm 0 W/m2
01:10 54.1 °F /  12.3 °C 52.5 °F /  11.4 °C 30.1in /  1017.6hPa Calm     94% 0in /  0.0mm 0 W/m2
01:15 54 °F /  12.2 °C 52 °F /  11.1 °C 30.1in /  1017.6hPa Calm     93% 0in /  0.0mm 0 W/m2
01:20 54 °F /  12.2 °C 52.3 °F /  11.3 °C 30.1in /  1017.6hPa Calm     94% 0in /  0.0mm 0 W/m2
01:25 53.8 °F /  12.1 °C 52.2 °F /  11.2 °C 30.1in /  1017.6hPa Calm     94% 0in /  0.0mm 0 W/m2
01:30 53.8 °F /  12.1 °C 52.2 °F /  11.2 °C 30.1in /  1017.6hPa Calm     94% 0in /  0.0mm 0 W/m2
01:35 53.6 °F /  12 °C 52 °F /  11.1 °C 30.1in /  1017.6hPa Calm     94% 0in /  0.0mm 0 W/m2
01:40 53.4 °F /  11.9 °C 51.8 °F /  11 °C 30.1in /  1017.6hPa Calm     94% 0in /  0.0mm 0 W/m2
01:45 53.4 °F /  11.9 °C 51.8 °F /  11 °C 30.1in /  1017.6hPa Calm     94% 0in /  0.0mm 0 W/m2
01:50 53.4 °F /  11.9 °C 51.8 °F /  11 °C 30.1in /  1017.6hPa Calm     94% 0in /  0.0mm 0 W/m2
01:55 53.2 °F /  11.8 °C 51.6 °F /  10.9 °C 30.1in /  1017.6hPa Calm     94% 0in /  0.0mm 0 W/m2
02:00 53.2 °F /  11.8 °C 51.6 °F /  10.9 °C 30.1in /  1017.6hPa Calm     94% 0in /  0.0mm 0 W/m2
02:05 53.1 °F /  11.7 °C 51.4 °F /  10.8 °C 30.1in /  1017.6hPa Calm     94% 0in /  0.0mm 0 W/m2
02:10 52.9 °F /  11.6 °C 51.3 °F /  10.7 °C 30in /  1017.3hPa Calm     94% 0in /  0.0mm 0 W/m2
02:15 52.9 °F /  11.6 °C 51.3 °F /  10.7 °C 30in /  1017.3hPa Calm     94% 0in /  0.0mm 0 W/m2
02:20 52.5 °F /  11.4 °C 50.9 °F /  10.5 °C 30in /  1017.3hPa Calm     94% 0in /  0.0mm 0 W/m2
02:25 52.5 °F /  11.4 °C 50.9 °F /  10.5 °C 30in /  1017.3hPa Calm     94% 0in /  0.0mm 0 W/m2
02:30 52.3 °F /  11.3 °C 50.9 °F /  10.5 °C 30in /  1017.3hPa Calm     95% 0in /  0.0mm 0 W/m2
02:35 52.3 °F /  11.3 °C 50.9 °F /  10.5 °C 30in /  1017.3hPa Calm     95% 0in /  0.0mm 0 W/m2
02:40 52.3 °F /  11.3 °C 50.9 °F /  10.5 °C 30in /  1017.3hPa Calm     95% 0in /  0.0mm 0 W/m2
02:45 52.2 °F /  11.2 °C 50.7 °F /  10.4 °C 30in /  1017.3hPa Calm     95% 0in /  0.0mm 0 W/m2
02:50 52.2 °F /  11.2 °C 50.7 °F /  10.4 °C 30in /  1017.3hPa Calm     95% 0in /  0.0mm 0 W/m2
02:55 52.2 °F /  11.2 °C 50.7 °F /  10.4 °C 30in /  1017.3hPa Calm     95% 0in /  0.0mm 0 W/m2
03:00 52 °F /  11.1 °C 50.5 °F /  10.3 °C 30in /  1017.3hPa Calm     95% 0in /  0.0mm 0 W/m2
03:05 51.8 °F /  11 °C 50.4 °F /  10.2 °C 30in /  1016.9hPa Calm     95% 0in /  0.0mm 0 W/m2
03:10 51.6 °F /  10.9 °C 50.2 °F /  10.1 °C 30in /  1016.9hPa Calm     95% 0in /  0.0mm 0 W/m2
03:15 51.6 °F /  10.9 °C 50.2 °F /  10.1 °C 30in /  1016.9hPa Calm     95% 0in /  0.0mm 0 W/m2
03:20 51.6 °F /  10.9 °C 50.2 °F /  10.1 °C 30in /  1016.9hPa Calm     95% 0in /  0.0mm 0 W/m2
03:25 51.4 °F /  10.8 °C 50 °F /  10 °C 30in /  1016.9hPa Calm     95% 0in /  0.0mm 0 W/m2
03:30 51.4 °F /  10.8 °C 50 °F /  10 °C 30in /  1016.9hPa Calm     95% 0in /  0.0mm 0 W/m2
03:35 51.3 °F /  10.7 °C 49.8 °F /  9.9 °C 30in /  1016.9hPa Calm     95% 0in /  0.0mm 0 W/m2
03:40 51.3 °F /  10.7 °C 49.8 °F /  9.9 °C 30in /  1016.9hPa Calm     95% 0in /  0.0mm 0 W/m2
03:46 51.1 °F /  10.6 °C 49.6 °F /  9.8 °C 30in /  1016.9hPa Calm     95% 0in /  0.0mm 0 W/m2
03:51 51.1 °F /  10.6 °C 49.6 °F /  9.8 °C 30in /  1016.6hPa Calm     95% 0in /  0.0mm 0 W/m2
03:56 51.1 °F /  10.6 °C 49.6 °F /  9.8 °C 30in /  1016.6hPa Calm     95% 0in /  0.0mm 0 W/m2
04:01 51.1 °F /  10.6 °C 49.6 °F /  9.8 °C 30in /  1016.6hPa Calm     95% 0in /  0.0mm 0 W/m2
04:06 51.1 °F /  10.6 °C 49.6 °F /  9.8 °C 30in /  1016.6hPa Calm     95% 0in /  0.0mm 0 W/m2
04:11 50.7 °F /  10.4 °C 49.3 °F /  9.6 °C 30in /  1016.6hPa Calm     95% 0in /  0.0mm 0 W/m2
04:16 50.7 °F /  10.4 °C 49.3 °F /  9.6 °C 30in /  1016.6hPa Calm     95% 0in /  0.0mm 0 W/m2
04:21 50.7 °F /  10.4 °C 49.3 °F /  9.6 °C 30in /  1016.6hPa Calm     95% 0in /  0.0mm 0 W/m2
04:26 50.7 °F /  10.4 °C 49.3 °F /  9.6 °C 30in /  1016.6hPa Calm     95% 0in /  0.0mm 0 W/m2
04:31 50.5 °F /  10.3 °C 49.1 °F /  9.5 °C 30in /  1016.6hPa Calm     95% 0in /  0.0mm 0 W/m2
04:36 50.5 °F /  10.3 °C 49.1 °F /  9.5 °C 30in /  1016.6hPa Calm     95% 0in /  0.0mm 0 W/m2
04:41 50.4 °F /  10.2 °C 49.3 °F /  9.6 °C 30in /  1016.6hPa Calm     96% 0in /  0.0mm 0 W/m2
04:46 50.4 °F /  10.2 °C 49.3 °F /  9.6 °C 30in /  1016.6hPa Calm     96% 0in /  0.0mm 0 W/m2
04:51 50.4 °F /  10.2 °C 49.3 °F /  9.6 °C 30in /  1016.6hPa Calm     96% 0in /  0.0mm 0 W/m2
04:56 50.4 °F /  10.2 °C 49.3 °F /  9.6 °C 30in /  1016.3hPa Calm     96% 0in /  0.0mm 0 W/m2
05:01 50.2 °F /  10.1 °C 49.1 °F /  9.5 °C 30in /  1016.3hPa Calm     96% 0in /  0.0mm 0 W/m2
05:06 50.4 °F /  10.2 °C 49.3 °F /  9.6 °C 30in /  1016.3hPa Calm     96% 0in /  0.0mm 0 W/m2
05:11 50.4 °F /  10.2 °C 49.3 °F /  9.6 °C 30in /  1016.3hPa Calm     96% 0in /  0.0mm 0 W/m2
05:16 50.2 °F /  10.1 °C 49.1 °F /  9.5 °C 30in /  1016.3hPa Calm     96% 0in /  0.0mm 0 W/m2
05:21 50.2 °F /  10.1 °C 49.1 °F /  9.5 °C 30in /  1016.3hPa Calm     96% 0in /  0.0mm 0 W/m2
05:26 50.2 °F /  10.1 °C 49.1 °F /  9.5 °C 30in /  1016.3hPa Calm     96% 0in /  0.0mm 0 W/m2
05:31 50.2 °F /  10.1 °C 49.1 °F /  9.5 °C 30in /  1016.3hPa Calm     96% 0in /  0.0mm 0 W/m2
05:36 50.2 °F /  10.1 °C 49.1 °F /  9.5 °C 30in /  1016.3hPa Calm     96% 0in /  0.0mm 0 W/m2
05:41 50.2 °F /  10.1 °C 49.1 °F /  9.5 °C 30in /  1016.3hPa Calm     96% 0in /  0.0mm 0 W/m2
05:46 50.2 °F /  10.1 °C 49.1 °F /  9.5 °C 30in /  1016.3hPa Calm     96% 0in /  0.0mm 0 W/m2
05:51 50.2 °F /  10.1 °C 49.1 °F /  9.5 °C 30in /  1016.3hPa Calm     96% 0in /  0.0mm 0 W/m2
05:56 50.2 °F /  10.1 °C 49.1 °F /  9.5 °C 30in /  1016.3hPa Calm     96% 0in /  0.0mm 0 W/m2
06:01 50.2 °F /  10.1 °C 49.1 °F /  9.5 °C 30in /  1016.3hPa Calm     96% 0in /  0.0mm 0 W/m2
06:06 50.2 °F /  10.1 °C 49.1 °F /  9.5 °C 30in /  1016.3hPa Calm     96% 0in /  0.0mm 0 W/m2
06:11 50.2 °F /  10.1 °C 49.1 °F /  9.5 °C 30in /  1016.3hPa Calm     96% 0in /  0.0mm 0 W/m2
06:16 50 °F /  10 °C 48.9 °F /  9.4 °C 30in /  1016.3hPa Calm     96% 0in /  0.0mm 0 W/m2
06:21 49.8 °F /  9.9 °C 48.7 °F /  9.3 °C 30in /  1016.3hPa Calm     96% 0in /  0.0mm 0 W/m2
06:26 49.8 °F /  9.9 °C 48.7 °F /  9.3 °C 30in /  1016.3hPa Calm     96% 0in /  0.0mm 0 W/m2
06:31 49.8 °F /  9.9 °C 48.7 °F /  9.3 °C 30in /  1016.3hPa Calm     96% 0in /  0.0mm 0 W/m2
06:36 49.8 °F /  9.9 °C 48.7 °F /  9.3 °C 30in /  1016.3hPa Calm     96% 0in /  0.0mm 0 W/m2
06:41 49.6 °F /  9.8 °C 48.6 °F /  9.2 °C 30in /  1016.3hPa Calm     96% 0in /  0.0mm 0 W/m2
06:46 49.6 °F /  9.8 °C 48.6 °F /  9.2 °C 30in /  1016.3hPa Calm     96% 0in /  0.0mm 0 W/m2
06:51 49.6 °F /  9.8 °C 48.6 °F /  9.2 °C 30in /  1016.3hPa Calm     96% 0in /  0.0mm 0 W/m2
06:56 49.6 °F /  9.8 °C 48.6 °F /  9.2 °C 30in /  1016.3hPa Calm     96% 0in /  0.0mm 0 W/m2
07:01 49.6 °F /  9.8 °C 48.6 °F /  9.2 °C 30in /  1016.3hPa Calm     96% 0in /  0.0mm 0 W/m2
07:06 49.5 °F /  9.7 °C 48.4 °F /  9.1 °C 30in /  1016.3hPa Calm     96% 0in /  0.0mm 0 W/m2
07:11 49.5 °F /  9.7 °C 48.4 °F /  9.1 °C 30in /  1016.6hPa Calm     96% 0in /  0.0mm 0 W/m2
07:16 49.5 °F /  9.7 °C 48.4 °F /  9.1 °C 30in /  1016.6hPa Calm     96% 0in /  0.0mm 0 W/m2
07:21 49.5 °F /  9.7 °C 48.4 °F /  9.1 °C 30in /  1016.6hPa Calm     96% 0in /  0.0mm 5 W/m2
07:27 49.5 °F /  9.7 °C 48.4 °F /  9.1 °C 30in /  1016.6hPa Calm     96% 0in /  0.0mm 9 W/m2
07:32 49.5 °F /  9.7 °C 48.4 °F /  9.1 °C 30in /  1016.6hPa Calm     96% 0in /  0.0mm 11 W/m2
07:37 49.5 °F /  9.7 °C 48.4 °F /  9.1 °C 30in /  1016.6hPa Calm     96% 0in /  0.0mm 14 W/m2
07:42 49.6 °F /  9.8 °C 48.6 °F /  9.2 °C 30in /  1016.6hPa Calm     96% 0in /  0.0mm 19 W/m2
07:47 49.6 °F /  9.8 °C 48.6 °F /  9.2 °C 30in /  1016.6hPa Calm     96% 0in /  0.0mm 21 W/m2
07:52 49.8 °F /  9.9 °C 48.7 °F /  9.3 °C 30in /  1016.6hPa Calm     96% 0in /  0.0mm 26 W/m2
07:57 50 °F /  10 °C 48.9 °F /  9.4 °C 30in /  1016.6hPa Calm     96% 0in /  0.0mm 33 W/m2
08:02 50.2 °F /  10.1 °C 49.3 °F /  9.6 °C 30in /  1016.6hPa Calm     97% 0in /  0.0mm 40 W/m2
08:07 50.2 °F /  10.1 °C 49.3 °F /  9.6 °C 30in /  1016.6hPa Calm     97% 0in /  0.0mm 47 W/m2
08:12 50.5 °F /  10.3 °C 49.6 °F /  9.8 °C 30in /  1016.6hPa Calm     97% 0in /  0.0mm 53 W/m2
08:17 50.5 °F /  10.3 °C 49.6 °F /  9.8 °C 30in /  1016.6hPa Calm     97% 0in /  0.0mm 56 W/m2
08:22 50.7 °F /  10.4 °C 49.8 °F /  9.9 °C 30in /  1016.6hPa Calm     97% 0in /  0.0mm 67 W/m2
08:27 51.1 °F /  10.6 °C 50.2 °F /  10.1 °C 30in /  1016.3hPa Calm     97% 0in /  0.0mm 84 W/m2
08:32 51.4 °F /  10.8 °C 50.5 °F /  10.3 °C 30in /  1016.3hPa Calm     97% 0in /  0.0mm 104 W/m2
08:37 51.6 °F /  10.9 °C 50.7 °F /  10.4 °C 30in /  1016.3hPa Calm     97% 0in /  0.0mm 137 W/m2
08:42 52 °F /  11.1 °C 51.1 °F /  10.6 °C 30in /  1016.3hPa Calm     97% 0in /  0.0mm 120 W/m2
08:47 52.3 °F /  11.3 °C 51.4 °F /  10.8 °C 30in /  1016.3hPa Calm     97% 0in /  0.0mm 83 W/m2
08:52 52.7 °F /  11.5 °C 51.8 °F /  11 °C 30in /  1016.3hPa Calm   1mph /  1.6km/h 97% 0in /  0.0mm 155 W/m2
08:57 53.2 °F /  11.8 °C 52.3 °F /  11.3 °C 30in /  1016.3hPa Calm   1mph /  1.6km/h 97% 0in /  0.0mm 183 W/m2
09:02 53.4 °F /  11.9 °C 52.5 °F /  11.4 °C 30in /  1016.3hPa North 0.9mph /  1.4km/h 2mph /  3.2km/h 97% 0in /  0.0mm 97 W/m2
09:07 53.4 °F /  11.9 °C 52.5 °F /  11.4 °C 30in /  1016.3hPa NE 0.9mph /  1.4km/h 3mph /  4.8km/h 97% 0in /  0.0mm 134 W/m2
09:12 53.8 °F /  12.1 °C 52.9 °F /  11.6 °C 30in /  1016.3hPa ESE 0.9mph /  1.4km/h 3mph /  4.8km/h 97% 0in /  0.0mm 109 W/m2
09:17 54 °F /  12.2 °C 53.1 °F /  11.7 °C 30in /  1016.3hPa Calm   2mph /  3.2km/h 97% 0in /  0.0mm 109 W/m2
09:22 54.1 °F /  12.3 °C 53.2 °F /  11.8 °C 30in /  1016.3hPa ENE 2mph /  3.2km/h 2mph /  3.2km/h 97% 0in /  0.0mm 223 W/m2
09:27 54.7 °F /  12.6 °C 53.8 °F /  12.1 °C 30in /  1016.3hPa ENE 0.9mph /  1.4km/h 3mph /  4.8km/h 97% 0in /  0.0mm 287 W/m2
09:32 55 °F /  12.8 °C 54.1 °F /  12.3 °C 30in /  1016.3hPa East 2mph /  3.2km/h 3mph /  4.8km/h 97% 0in /  0.0mm 301 W/m2
09:37 55.8 °F /  13.2 °C 54.7 °F /  12.6 °C 30in /  1016.3hPa NE 0.9mph /  1.4km/h 3mph /  4.8km/h 96% 0in /  0.0mm 330 W/m2
09:42 56.7 °F /  13.7 °C 55.6 °F /  13.1 °C 30in /  1016.3hPa Calm   3mph /  4.8km/h 96% 0in /  0.0mm 323 W/m2
09:47 57.4 °F /  14.1 °C 55.6 °F /  13.1 °C 30in /  1016.3hPa ENE 0.9mph /  1.4km/h 4mph /  6.4km/h 94% 0in /  0.0mm 327 W/m2
09:52 57.7 °F /  14.3 °C 55.8 °F /  13.2 °C 30in /  1016.3hPa East 2mph /  3.2km/h 4mph /  6.4km/h 93% 0in /  0.0mm 360 W/m2
09:57 58.3 °F /  14.6 °C 55.9 °F /  13.3 °C 30in /  1016.3hPa Calm   1mph /  1.6km/h 92% 0in /  0.0mm 369 W/m2
10:02 58.8 °F /  14.9 °C 56.1 °F /  13.4 °C 30in /  1016.3hPa East 0.9mph /  1.4km/h 2mph /  3.2km/h 91% 0in /  0.0mm 404 W/m2
10:07 59.4 °F /  15.2 °C 55.8 °F /  13.2 °C 30in /  1016.3hPa ENE 2mph /  3.2km/h 3mph /  4.8km/h 88% 0in /  0.0mm 373 W/m2
10:12 59.7 °F /  15.4 °C 55.6 °F /  13.1 °C 30in /  1016.3hPa Calm   2mph /  3.2km/h 86% 0in /  0.0mm 336 W/m2
10:17 60.1 °F /  15.6 °C 55.6 °F /  13.1 °C 30in /  1016.3hPa East 0.9mph /  1.4km/h 4mph /  6.4km/h 85% 0in /  0.0mm 441 W/m2
10:22 60.3 °F /  15.7 °C 55.8 °F /  13.2 °C 30in /  1016.3hPa ENE 0.9mph /  1.4km/h 1mph /  1.6km/h 85% 0in /  0.0mm 429 W/m2
10:27 60.3 °F /  15.7 °C 55.8 °F /  13.2 °C 30in /  1016.3hPa ENE 0.9mph /  1.4km/h 3mph /  4.8km/h 85% 0in /  0.0mm 420 W/m2
10:32 60.6 °F /  15.9 °C 55.8 °F /  13.2 °C 30in /  1016.3hPa East 0.9mph /  1.4km/h 2mph /  3.2km/h 84% 0in /  0.0mm 301 W/m2
10:37 60.6 °F /  15.9 °C 55.4 °F /  13 °C 30in /  1016.3hPa ENE 0.9mph /  1.4km/h 4mph /  6.4km/h 83% 0in /  0.0mm 216 W/m2
10:42 60.6 °F /  15.9 °C 55.8 °F /  13.2 °C 30in /  1016.3hPa ENE 0.9mph /  1.4km/h 2mph /  3.2km/h 84% 0in /  0.0mm 489 W/m2
10:47 61 °F /  16.1 °C 55.8 °F /  13.2 °C 30in /  1016.3hPa ENE 4mph /  6.4km/h 4mph /  6.4km/h 83% 0in /  0.0mm 482 W/m2
10:52 61.2 °F /  16.2 °C 55.9 °F /  13.3 °C 30in /  1016.3hPa East 0.9mph /  1.4km/h 4mph /  6.4km/h 83% 0in /  0.0mm 366 W/m2
10:57 61.3 °F /  16.3 °C 56.1 °F /  13.4 °C 30in /  1016.3hPa East 0.9mph /  1.4km/h 2mph /  3.2km/h 83% 0in /  0.0mm 492 W/m2
11:02 61.9 °F /  16.6 °C 55.9 °F /  13.3 °C 30in /  1016.3hPa ENE 2.9mph /  4.7km/h 4mph /  6.4km/h 81% 0in /  0.0mm 341 W/m2
11:07 62.1 °F /  16.7 °C 56.1 °F /  13.4 °C 30in /  1016.3hPa Calm   3mph /  4.8km/h 81% 0in /  0.0mm 306 W/m2
11:12 62.1 °F /  16.7 °C 55.4 °F /  13 °C 30in /  1016.3hPa Calm   2mph /  3.2km/h 79% 0in /  0.0mm 350 W/m2
11:17 62.2 °F /  16.8 °C 55.9 °F /  13.3 °C 30in /  1016.3hPa Calm     80% 0in /  0.0mm 376 W/m2
11:22 62.6 °F /  17 °C 55.9 °F /  13.3 °C 30in /  1016.3hPa ESE 2mph /  3.2km/h 2mph /  3.2km/h 79% 0in /  0.0mm 373 W/m2
11:27 63 °F /  17.2 °C 56.3 °F /  13.5 °C 30in /  1016.3hPa East 0.9mph /  1.4km/h 1mph /  1.6km/h 79% 0in /  0.0mm 462 W/m2
11:32 63.9 °F /  17.7 °C 56.5 °F /  13.6 °C 30in /  1016.3hPa East 2mph /  3.2km/h 5mph /  8km/h 77% 0in /  0.0mm 499 W/m2
11:37 64.2 °F /  17.9 °C 56.8 °F /  13.8 °C 30in /  1016.3hPa Calm   2mph /  3.2km/h 77% 0in /  0.0mm 643 W/m2
11:42 64.8 °F /  18.2 °C 56.7 °F /  13.7 °C 30in /  1016.3hPa SE 0.9mph /  1.4km/h 3mph /  4.8km/h 75% 0in /  0.0mm 631 W/m2
11:47 65.5 °F /  18.6 °C 57 °F /  13.9 °C 30in /  1016.3hPa NE 2mph /  3.2km/h 3mph /  4.8km/h 74% 0in /  0.0mm 606 W/m2
11:52 65.8 °F /  18.8 °C 56.5 °F /  13.6 °C 30in /  1015.9hPa ENE 0.9mph /  1.4km/h 3mph /  4.8km/h 72% 0in /  0.0mm 605 W/m2
11:57 66 °F /  18.9 °C 56.3 °F /  13.5 °C 30in /  1015.9hPa ESE 2mph /  3.2km/h 2mph /  3.2km/h 71% 0in /  0.0mm 596 W/m2
12:03 66.4 °F /  19.1 °C 56.7 °F /  13.7 °C 30in /  1015.9hPa Calm   3mph /  4.8km/h 71% 0in /  0.0mm 608 W/m2
12:08 66.6 °F /  19.2 °C 56.1 °F /  13.4 °C 30in /  1015.9hPa ESE 2.9mph /  4.7km/h 4mph /  6.4km/h 69% 0in /  0.0mm 534 W/m2
12:13 66.7 °F /  19.3 °C 56.7 °F /  13.7 °C 30in /  1015.9hPa East 2mph /  3.2km/h 3mph /  4.8km/h 70% 0in /  0.0mm 626 W/m2
12:18 67.3 °F /  19.6 °C 57.2 °F /  14 °C 30in /  1015.9hPa ESE 4mph /  6.4km/h 4mph /  6.4km/h 70% 0in /  0.0mm 508 W/m2
12:23 67.8 °F /  19.9 °C 56.5 °F /  13.6 °C 30in /  1015.9hPa Calm   3mph /  4.8km/h 67% 0in /  0.0mm 615 W/m2
12:28 68.2 °F /  20.1 °C 56.3 °F /  13.5 °C 30in /  1015.9hPa East 0.9mph /  1.4km/h 5mph /  8km/h 66% 0in /  0.0mm 345 W/m2
12:33 68.4 °F /  20.2 °C 56.5 °F /  13.6 °C 30in /  1015.9hPa East 4mph /  6.4km/h 4mph /  6.4km/h 66% 0in /  0.0mm 649 W/m2
12:38 68.4 °F /  20.2 °C 56.5 °F /  13.6 °C 30in /  1015.9hPa West 0.9mph /  1.4km/h 3mph /  4.8km/h 66% 0in /  0.0mm 642 W/m2
12:43 68.2 °F /  20.1 °C 57.2 °F /  14 °C 30in /  1015.9hPa ESE 2mph /  3.2km/h 6mph /  9.7km/h 68% 0in /  0.0mm 640 W/m2
12:48 68.4 °F /  20.2 °C 56.1 °F /  13.4 °C 30in /  1015.9hPa ESE 0.9mph /  1.4km/h 2mph /  3.2km/h 65% 0in /  0.0mm 633 W/m2
12:53 68 °F /  20 °C 56.3 °F /  13.5 °C 30in /  1015.9hPa NNW 2mph /  3.2km/h 6mph /  9.7km/h 66% 0in /  0.0mm 656 W/m2
12:58 67.8 °F /  19.9 °C 56.5 °F /  13.6 °C 30in /  1015.9hPa Calm   3mph /  4.8km/h 67% 0in /  0.0mm 668 W/m2
13:03 68.4 °F /  20.2 °C 56.5 °F /  13.6 °C 30in /  1015.9hPa SSE 2mph /  3.2km/h 2mph /  3.2km/h 66% 0in /  0.0mm 146 W/m2
13:08 68.4 °F /  20.2 °C 56.5 °F /  13.6 °C 30in /  1015.6hPa Calm   2mph /  3.2km/h 66% 0in /  0.0mm 666 W/m2
13:13 68.5 °F /  20.3 °C 56.7 °F /  13.7 °C 30in /  1015.6hPa West 2mph /  3.2km/h 2mph /  3.2km/h 66% 0in /  0.0mm 680 W/m2
13:18 68.7 °F /  20.4 °C 57.4 °F /  14.1 °C 30in /  1015.6hPa ENE 2mph /  3.2km/h 3mph /  4.8km/h 67% 0in /  0.0mm 700 W/m2
13:23 69.1 °F /  20.6 °C 56.5 °F /  13.6 °C 30in /  1015.6hPa ESE 6mph /  9.7km/h 8mph /  12.9km/h 64% 0in /  0.0mm 708 W/m2
13:28 69.3 °F /  20.7 °C 56.1 °F /  13.4 °C 30in /  1015.6hPa Calm   5mph /  8km/h 63% 0in /  0.0mm 724 W/m2
13:33 69.4 °F /  20.8 °C 57.2 °F /  14 °C 30in /  1015.6hPa Calm   8mph /  12.9km/h 65% 0in /  0.0mm 722 W/m2
13:38 69.4 °F /  20.8 °C 55.9 °F /  13.3 °C 30in /  1015.2hPa SE 0.9mph /  1.4km/h 2mph /  3.2km/h 62% 0in /  0.0mm 237 W/m2
13:43 69.3 °F /  20.7 °C 56.1 °F /  13.4 °C 30in /  1015.2hPa ENE 4mph /  6.4km/h 5mph /  8km/h 63% 0in /  0.0mm 209 W/m2
13:48 69.1 °F /  20.6 °C 55.9 °F /  13.3 °C 30in /  1015.2hPa Calm   3mph /  4.8km/h 63% 0in /  0.0mm 299 W/m2
13:53 69.1 °F /  20.6 °C 55.9 °F /  13.3 °C 30in /  1015.2hPa North 2.9mph /  4.7km/h 3mph /  4.8km/h 63% 0in /  0.0mm 550 W/m2
13:58 68.9 °F /  20.5 °C 55.4 °F /  13 °C 30in /  1015.2hPa ENE 0.9mph /  1.4km/h 4mph /  6.4km/h 62% 0in /  0.0mm 163 W/m2
14:03 68.7 °F /  20.4 °C 55.6 °F /  13.1 °C 30in /  1015.2hPa ENE 0.9mph /  1.4km/h 4mph /  6.4km/h 63% 0in /  0.0mm 163 W/m2
14:08 68.5 °F /  20.3 °C 55.4 °F /  13 °C 30in /  1015.2hPa NNW 0.9mph /  1.4km/h 2mph /  3.2km/h 63% 0in /  0.0mm 135 W/m2
14:13 68.4 °F /  20.2 °C 55.2 °F /  12.9 °C 30in /  1015.2hPa East 0.9mph /  1.4km/h 2mph /  3.2km/h 63% 0in /  0.0mm 160 W/m2
14:18 68.4 °F /  20.2 °C 55.2 °F /  12.9 °C 30in /  1015.2hPa ENE 4mph /  6.4km/h 5mph /  8km/h 63% 0in /  0.0mm 221 W/m2
14:23 68.5 °F /  20.3 °C 55.4 °F /  13 °C 30in /  1015.2hPa Calm   3mph /  4.8km/h 63% 0in /  0.0mm 698 W/m2
14:28 69.1 °F /  20.6 °C 55.6 °F /  13.1 °C 30in /  1015.2hPa NNW 2mph /  3.2km/h 5mph /  8km/h 62% 0in /  0.0mm 693 W/m2
14:33 69.4 °F /  20.8 °C 55.4 °F /  13 °C 30in /  1014.9hPa ENE 0.9mph /  1.4km/h 7mph /  11.3km/h 61% 0in /  0.0mm 239 W/m2
14:38 69.6 °F /  20.9 °C 55.9 °F /  13.3 °C 30in /  1014.9hPa SSE 0.9mph /  1.4km/h 4mph /  6.4km/h 62% 0in /  0.0mm 318 W/m2
14:43 69.8 °F /  21 °C 56.1 °F /  13.4 °C 30in /  1014.9hPa ESE 2.9mph /  4.7km/h 7mph /  11.3km/h 62% 0in /  0.0mm 758 W/m2
14:48 70.2 °F /  21.2 °C 55.2 °F /  12.9 °C 30in /  1014.9hPa ESE 2.9mph /  4.7km/h 5mph /  8km/h 59% 0in /  0.0mm 758 W/m2
14:53 70.5 °F /  21.4 °C 55.9 °F /  13.3 °C 30in /  1014.9hPa ESE 0.9mph /  1.4km/h 2mph /  3.2km/h 60% 0in /  0.0mm 754 W/m2
14:58 71.1 °F /  21.7 °C 55.6 °F /  13.1 °C 30in /  1014.9hPa Calm   5mph /  8km/h 58% 0in /  0.0mm 712 W/m2
15:03 71.4 °F /  21.9 °C 55.4 °F /  13 °C 30in /  1014.9hPa ESE 2mph /  3.2km/h 3mph /  4.8km/h 57% 0in /  0.0mm 598 W/m2
15:08 71.4 °F /  21.9 °C 54.9 °F /  12.7 °C 30in /  1014.9hPa South 0.9mph /  1.4km/h 4mph /  6.4km/h 56% 0in /  0.0mm 288 W/m2
15:13 71.2 °F /  21.8 °C 55.2 °F /  12.9 °C 30in /  1014.9hPa ESE 2mph /  3.2km/h 3mph /  4.8km/h 57% 0in /  0.0mm 671 W/m2
15:18 71.4 °F /  21.9 °C 54.9 °F /  12.7 °C 30in /  1014.6hPa East 0.9mph /  1.4km/h 8mph /  12.9km/h 56% 0in /  0.0mm 645 W/m2
15:23 71.8 °F /  22.1 °C 54.7 °F /  12.6 °C 30in /  1014.6hPa Calm   2mph /  3.2km/h 55% 0in /  0.0mm 643 W/m2
15:28 72 °F /  22.2 °C 55.9 °F /  13.3 °C 30in /  1014.6hPa Calm   4mph /  6.4km/h 57% 0in /  0.0mm 629 W/m2
15:33 72.3 °F /  22.4 °C 55.2 °F /  12.9 °C 30in /  1014.6hPa Calm   1mph /  1.6km/h 55% 0in /  0.0mm 613 W/m2
15:38 72.9 °F /  22.7 °C 56.3 °F /  13.5 °C 30in /  1014.6hPa ENE 0.9mph /  1.4km/h 3mph /  4.8km/h 56% 0in /  0.0mm 592 W/m2
15:43 73 °F /  22.8 °C 55.4 °F /  13 °C 30in /  1014.6hPa ENE 2.9mph /  4.7km/h 3mph /  4.8km/h 54% 0in /  0.0mm 601 W/m2
15:48 73.2 °F /  22.9 °C 55 °F /  12.8 °C 30in /  1014.6hPa NNW 2mph /  3.2km/h 4mph /  6.4km/h 53% 0in /  0.0mm 571 W/m2
15:53 73.2 °F /  22.9 °C 54.5 °F /  12.5 °C 30in /  1014.6hPa Calm   3mph /  4.8km/h 52% 0in /  0.0mm 555 W/m2
15:58 73 °F /  22.8 °C 54.9 °F /  12.7 °C 30in /  1014.6hPa East 2mph /  3.2km/h 4mph /  6.4km/h 53% 0in /  0.0mm 559 W/m2
16:03 72.7 °F /  22.6 °C 55 °F /  12.8 °C 30in /  1014.6hPa Calm   2mph /  3.2km/h 54% 0in /  0.0mm 545 W/m2
16:08 72.3 °F /  22.4 °C 54.7 °F /  12.6 °C 30in /  1014.6hPa East 2.9mph /  4.7km/h 4mph /  6.4km/h 54% 0in /  0.0mm 146 W/m2
16:13 72.1 °F /  22.3 °C 55.6 °F /  13.1 °C 30in /  1014.6hPa ENE 0.9mph /  1.4km/h 2mph /  3.2km/h 56% 0in /  0.0mm 555 W/m2
16:18 72 °F /  22.2 °C 55.4 °F /  13 °C 30in /  1014.6hPa SSE 0.9mph /  1.4km/h 4mph /  6.4km/h 56% 0in /  0.0mm 443 W/m2
16:23 72 °F /  22.2 °C 55.4 °F /  13 °C 30in /  1014.6hPa ESE 0.9mph /  1.4km/h 3mph /  4.8km/h 56% 0in /  0.0mm 547 W/m2
16:28 72 °F /  22.2 °C 55.9 °F /  13.3 °C 30in /  1014.2hPa East 2mph /  3.2km/h 4mph /  6.4km/h 57% 0in /  0.0mm 566 W/m2
16:33 72 °F /  22.2 °C 55.9 °F /  13.3 °C 30in /  1014.2hPa ENE 0.9mph /  1.4km/h 3mph /  4.8km/h 57% 0in /  0.0mm 548 W/m2
16:38 72.1 °F /  22.3 °C 56.1 °F /  13.4 °C 30in /  1014.2hPa ENE 2mph /  3.2km/h 6mph /  9.7km/h 57% 0in /  0.0mm 540 W/m2
16:43 72.3 °F /  22.4 °C 56.3 °F /  13.5 °C 30in /  1014.2hPa East 2.9mph /  4.7km/h 4mph /  6.4km/h 57% 0in /  0.0mm 522 W/m2
16:48 72.1 °F /  22.3 °C 55 °F /  12.8 °C 30in /  1014.2hPa East 2.9mph /  4.7km/h 5mph /  8km/h 55% 0in /  0.0mm 283 W/m2
16:53 72 °F /  22.2 °C 54.3 °F /  12.4 °C 30in /  1014.2hPa ENE 2mph /  3.2km/h 5mph /  8km/h 54% 0in /  0.0mm 264 W/m2
16:58 71.4 °F /  21.9 °C 55.4 °F /  13 °C 30in /  1014.2hPa Calm   3mph /  4.8km/h 57% 0in /  0.0mm 118 W/m2
17:03 71.1 °F /  21.7 °C 54.5 °F /  12.5 °C 30in /  1014.2hPa ESE 0.9mph /  1.4km/h 1mph /  1.6km/h 56% 0in /  0.0mm 76 W/m2
17:08 70.9 °F /  21.6 °C 55.8 °F /  13.2 °C 30in /  1014.2hPa ENE 2.9mph /  4.7km/h 3mph /  4.8km/h 59% 0in /  0.0mm 63 W/m2
17:13 70.3 °F /  21.3 °C 55.8 °F /  13.2 °C 30in /  1014.2hPa ENE 0.9mph /  1.4km/h 4mph /  6.4km/h 60% 0in /  0.0mm 62 W/m2
17:18 70 °F /  21.1 °C 55.4 °F /  13 °C 30in /  1014.2hPa ENE 2mph /  3.2km/h 2mph /  3.2km/h 60% 0in /  0.0mm 69 W/m2
17:23 69.6 °F /  20.9 °C 55 °F /  12.8 °C 30in /  1014.2hPa ENE 0.9mph /  1.4km/h 3mph /  4.8km/h 60% 0in /  0.0mm 74 W/m2
17:28 69.3 °F /  20.7 °C 55.2 °F /  12.9 °C 30in /  1014.2hPa ENE 0.9mph /  1.4km/h 5mph /  8km/h 61% 0in /  0.0mm 69 W/m2
17:33 69.1 °F /  20.6 °C 55.6 °F /  13.1 °C 30in /  1014.2hPa NE 0.9mph /  1.4km/h 5mph /  8km/h 62% 0in /  0.0mm 65 W/m2
17:38 68.7 °F /  20.4 °C 55.6 °F /  13.1 °C 30in /  1014.2hPa Calm   1mph /  1.6km/h 63% 0in /  0.0mm 51 W/m2
17:43 68.4 °F /  20.2 °C 55.2 °F /  12.9 °C 29.9in /  1013.9hPa SE 0.9mph /  1.4km/h 3mph /  4.8km/h 63% 0in /  0.0mm 47 W/m2
17:48 68 °F /  20 °C 55.4 °F /  13 °C 30in /  1014.2hPa Calm   1mph /  1.6km/h 64% 0in /  0.0mm 47 W/m2
17:53 67.6 °F /  19.8 °C 56.3 °F /  13.5 °C 30in /  1014.2hPa Calm     67% 0in /  0.0mm 56 W/m2
17:58 67.3 °F /  19.6 °C 55.6 °F /  13.1 °C 30in /  1014.2hPa East 0.9mph /  1.4km/h 3mph /  4.8km/h 66% 0in /  0.0mm 56 W/m2
18:03 67.3 °F /  19.6 °C 55.6 °F /  13.1 °C 30in /  1014.2hPa Calm   1mph /  1.6km/h 66% 0in /  0.0mm 216 W/m2
18:08 67.5 °F /  19.7 °C 56.5 °F /  13.6 °C 30in /  1014.2hPa SE 0.9mph /  1.4km/h 2mph /  3.2km/h 68% 0in /  0.0mm 204 W/m2
18:13 67.6 °F /  19.8 °C 56.7 °F /  13.7 °C 30in /  1014.2hPa Calm     68% 0in /  0.0mm 190 W/m2
18:18 68 °F /  20 °C 57 °F /  13.9 °C 30in /  1014.2hPa SSE 0.9mph /  1.4km/h 1mph /  1.6km/h 68% 0in /  0.0mm 178 W/m2
18:23 68.4 °F /  20.2 °C 57.7 °F /  14.3 °C 29.9in /  1013.9hPa Calm   1mph /  1.6km/h 69% 0in /  0.0mm 167 W/m2
18:28 68.7 °F /  20.4 °C 58.1 °F /  14.5 °C 29.9in /  1013.9hPa Calm   1mph /  1.6km/h 69% 0in /  0.0mm 155 W/m2
18:33 68.7 °F /  20.4 °C 57.7 °F /  14.3 °C 29.9in /  1013.9hPa Calm   1mph /  1.6km/h 68% 0in /  0.0mm 141 W/m2
18:38 68.9 °F /  20.5 °C 57.9 °F /  14.4 °C 29.9in /  1013.9hPa Calm   2mph /  3.2km/h 68% 0in /  0.0mm 127 W/m2
18:44 68.7 °F /  20.4 °C 57.7 °F /  14.3 °C 29.9in /  1013.9hPa South 0.9mph /  1.4km/h 1mph /  1.6km/h 68% 0in /  0.0mm 116 W/m2
18:49 68.5 °F /  20.3 °C 57.6 °F /  14.2 °C 29.9in /  1013.9hPa South 0.9mph /  1.4km/h 2mph /  3.2km/h 68% 0in /  0.0mm 83 W/m2
18:54 68.2 °F /  20.1 °C 57.2 °F /  14 °C 29.9in /  1013.5hPa Calm   1mph /  1.6km/h 68% 0in /  0.0mm 30 W/m2
18:59 67.5 °F /  19.7 °C 57 °F /  13.9 °C 29.9in /  1013.9hPa Calm     69% 0in /  0.0mm 26 W/m2
19:04 66.7 °F /  19.3 °C 56.7 °F /  13.7 °C 29.9in /  1013.9hPa Calm     70% 0in /  0.0mm 25 W/m2
19:09 66.2 °F /  19 °C 56.1 °F /  13.4 °C 29.9in /  1013.9hPa Calm     70% 0in /  0.0mm 21 W/m2
19:14 65.7 °F /  18.7 °C 56.3 °F /  13.5 °C 29.9in /  1013.5hPa South 0.9mph /  1.4km/h 2mph /  3.2km/h 72% 0in /  0.0mm 19 W/m2
19:19 64.9 °F /  18.3 °C 56.1 °F /  13.4 °C 29.9in /  1013.5hPa Calm   1mph /  1.6km/h 73% 0in /  0.0mm 18 W/m2
19:24 64.6 °F /  18.1 °C 55.8 °F /  13.2 °C 29.9in /  1013.5hPa Calm     73% 0in /  0.0mm 14 W/m2
19:29 64 °F /  17.8 °C 55.6 °F /  13.1 °C 29.9in /  1013.5hPa Calm   1mph /  1.6km/h 74% 0in /  0.0mm 12 W/m2
19:34 63.7 °F /  17.6 °C 55.6 °F /  13.1 °C 29.9in /  1013.5hPa South 0.9mph /  1.4km/h 2mph /  3.2km/h 75% 0in /  0.0mm 9 W/m2
19:39 63.1 °F /  17.3 °C 55 °F /  12.8 °C 29.9in /  1013.9hPa South 0.9mph /  1.4km/h 2mph /  3.2km/h 75% 0in /  0.0mm 7 W/m2
19:44 63 °F /  17.2 °C 55.2 °F /  12.9 °C 29.9in /  1013.9hPa Calm     76% 0in /  0.0mm 5 W/m2
19:49 62.4 °F /  16.9 °C 55 °F /  12.8 °C 29.9in /  1013.9hPa South 0.9mph /  1.4km/h 2mph /  3.2km/h 77% 0in /  0.0mm 0 W/m2
19:54 62.1 °F /  16.7 °C 55 °F /  12.8 °C 29.9in /  1013.9hPa Calm   1mph /  1.6km/h 78% 0in /  0.0mm 0 W/m2
19:59 61.7 °F /  16.5 °C 55 °F /  12.8 °C 29.9in /  1013.9hPa Calm   2mph /  3.2km/h 79% 0in /  0.0mm 0 W/m2
20:04 61.3 °F /  16.3 °C 55 °F /  12.8 °C 29.9in /  1013.9hPa South 0.9mph /  1.4km/h 2mph /  3.2km/h 80% 0in /  0.0mm 0 W/m2
20:09 61.2 °F /  16.2 °C 54.9 °F /  12.7 °C 30in /  1014.2hPa South 0.9mph /  1.4km/h 1mph /  1.6km/h 80% 0in /  0.0mm 0 W/m2
20:14 60.8 °F /  16 °C 54.9 °F /  12.7 °C 30in /  1014.2hPa South 0.9mph /  1.4km/h 2mph /  3.2km/h 81% 0in /  0.0mm 0 W/m2
20:19 60.4 °F /  15.8 °C 54.9 °F /  12.7 °C 29.9in /  1013.9hPa Calm     82% 0in /  0.0mm 0 W/m2
20:24 60.3 °F /  15.7 °C 54.7 °F /  12.6 °C 30in /  1014.2hPa Calm   2mph /  3.2km/h 82% 0in /  0.0mm 0 W/m2
20:29 60.1 °F /  15.6 °C 54.5 °F /  12.5 °C 30in /  1014.2hPa Calm     82% 0in /  0.0mm 0 W/m2
20:34 59.7 °F /  15.4 °C 54.5 °F /  12.5 °C 30in /  1014.2hPa Calm     83% 0in /  0.0mm 0 W/m2
20:39 59.5 °F /  15.3 °C 54.3 °F /  12.4 °C 30in /  1014.2hPa Calm     83% 0in /  0.0mm 0 W/m2
20:44 59.2 °F /  15.1 °C 54.3 °F /  12.4 °C 30in /  1014.2hPa Calm     84% 0in /  0.0mm 0 W/m2
20:49 59 °F /  15 °C 54.1 °F /  12.3 °C 30in /  1014.2hPa Calm     84% 0in /  0.0mm 0 W/m2
20:54 58.6 °F /  14.8 °C 54.1 °F /  12.3 °C 30in /  1014.6hPa Calm     85% 0in /  0.0mm 0 W/m2
20:59 58.5 °F /  14.7 °C 54 °F /  12.2 °C 30in /  1014.6hPa Calm     85% 0in /  0.0mm 0 W/m2
21:04 58.5 °F /  14.7 °C 54.3 °F /  12.4 °C 30in /  1014.6hPa Calm     86% 0in /  0.0mm 0 W/m2
21:09 58.1 °F /  14.5 °C 54.3 °F /  12.4 °C 30in /  1014.6hPa Calm     87% 0in /  0.0mm 0 W/m2
21:14 57.9 °F /  14.4 °C 54.1 °F /  12.3 °C 30in /  1014.6hPa Calm     87% 0in /  0.0mm 0 W/m2
Juneau County Weather
Compliments of Weather Underground - 2 mb